KMLI/MLI METAR and TAF weather

Enter ICAO airport designator
Station Type Date Time Source
KMLI METAR 2022/06/27 08:52 UTC NOAA

KMLI 270852Z 31004KT 10SM CLR 17/10 A3022 RMK AO2 SLP232 T01670100 53002


Station Type Date Time Source
KMLI Decoded METAR 2022/06/27 08:52 UTC NOAA

MOLINE QUAD-CITY AIRPORT, IL, United States (KMLI) 41-27N 90-31W 184M
Jun 27, 2022 - 04:52 AM EDT / 2022.06.27 0852 UTC
Wind: from the NW (310 degrees) at 5 MPH (4 KT):0
Visibility: 10 mile(s):0
Sky conditions: clear
Temperature: 62.1 F (16.7 C)
Dew Point: 50.0 F (10.0 C)
Relative Humidity: 64%
Pressure (altimeter): 30.22 in. Hg (1023 hPa)
Pressure tendency: 0.01 inches (0.2 hPa) higher than three hours ago
ob: KMLI 270852Z 31004KT 10SM CLR 17/10 A3022 RMK AO2 SLP232 T01670100 53002
cycle: 9

Station Type Date Time Source
KMLI TAF 2022/06/27 06:22 UTC NOAA

TAF KMLI 270520Z 2706/2806 30006KT P6SM SKC

Example: see airport list